Time;durP1;ratioP1;P1;durP2;ratioP2;P2;SDS_P1;SDS_P2;PMS_P1;PMS_P2;Temp;Humidity;BMP_temperature;BMP_pressure;BME280_temperature;BME280_humidity;BME280_pressure;Samples;Min_cycle;Max_cycle;Signal;HPM_P1;HPM_P2
2022/08/14 00:01:05;;;;;;;5.45;2.85;;;;;;;18.78;77.89;99539.47;4895764;29;20525;-61
2022/08/14 00:03:31;;;;;;;5.88;3.60;;;;;;;18.76;78.74;99540.56;4895907;29;20033;-61
2022/08/14 00:05:59;;;;;;;6.30;3.17;;;;;;;18.74;79.33;99534.41;4895658;29;20084;-61
2022/08/14 00:08:25;;;;;;;5.70;2.97;;;;;;;18.63;79.89;99526.28;4895931;29;20127;-61
2022/08/14 00:10:51;;;;;;;9.27;3.33;;;;;;;18.57;80.51;99524.00;4895591;29;20056;-61
2022/08/14 00:13:19;;;;;;;6.45;3.08;;;;;;;18.53;80.31;99528.78;4895887;29;20481;-61
2022/08/14 00:15:48;;;;;;;4.28;3.00;;;;;;;18.48;80.76;99525.56;4895620;29;20393;-61
2022/08/14 00:18:17;;;;;;;7.35;3.13;;;;;;;18.42;81.93;99535.91;4895165;29;20033;-61
2022/08/14 00:20:44;;;;;;;6.03;2.72;;;;;;;18.38;82.49;99536.06;4894796;29;20052;-61
2022/08/14 00:23:11;;;;;;;5.53;3.33;;;;;;;18.35;82.71;99532.78;4897350;29;20063;-61
2022/08/14 00:25:37;;;;;;;5.15;3.28;;;;;;;18.29;82.40;99542.13;4894872;29;20595;-61
2022/08/14 00:28:03;;;;;;;4.82;3.10;;;;;;;18.21;82.96;99533.75;4895089;29;20032;-62
2022/08/14 00:30:29;;;;;;;6.25;2.90;;;;;;;18.17;82.98;99532.22;4894895;29;20056;-62
2022/08/14 00:32:54;;;;;;;4.80;2.88;;;;;;;18.14;83.56;99527.06;4895670;29;20366;-62
2022/08/14 00:35:20;;;;;;;5.25;3.20;;;;;;;18.13;84.43;99519.97;4895564;29;20032;-61
2022/08/14 00:37:46;;;;;;;7.18;3.08;;;;;;;18.14;84.81;99518.13;4895715;29;20041;-61
2022/08/14 00:40:15;;;;;;;6.90;3.33;;;;;;;18.13;84.62;99522.66;4895650;29;20380;-61
2022/08/14 00:42:41;;;;;;;4.63;3.00;;;;;;;18.22;83.61;99513.91;4895667;29;20081;-61
2022/08/14 00:45:09;;;;;;;5.10;3.20;;;;;;;18.18;83.66;99523.19;4895392;29;20043;-61
2022/08/14 00:47:35;;;;;;;6.65;3.70;;;;;;;18.09;83.53;99529.22;4895379;29;20032;-61
2022/08/14 00:50:01;;;;;;;6.88;3.20;;;;;;;17.95;82.89;99528.47;4894450;29;20043;-61
2022/08/14 00:52:26;;;;;;;6.28;3.33;;;;;;;17.82;83.31;99536.56;4895535;29;20060;-61
2022/08/14 00:54:53;;;;;;;5.82;3.38;;;;;;;17.79;83.58;99515.22;4895595;29;20055;-61
2022/08/14 00:57:27;;;;;;;5.10;3.35;;;;;;;17.83;84.69;99527.50;4897673;29;20044;-61
2022/08/14 00:59:52;;;;;;;4.82;2.92;;;;;;;17.80;85.00;99519.66;4895104;29;20064;-61
2022/08/14 01:02:23;;;;;;;5.65;3.03;;;;;;;17.72;86.37;99522.03;4895394;29;20037;-61
2022/08/14 01:04:52;;;;;;;7.47;3.45;;;;;;;17.66;87.20;99514.34;4896369;29;20060;-61
2022/08/14 01:07:19;;;;;;;4.88;3.05;;;;;;;17.72;86.73;99508.56;4898658;29;20057;-61
2022/08/14 01:09:50;;;;;;;5.28;3.65;;;;;;;17.80;85.91;99500.81;4899034;29;20432;-61
2022/08/14 01:12:17;;;;;;;9.30;2.95;;;;;;;17.78;86.33;99501.88;4898747;29;20699;-61
2022/08/14 01:14:43;;;;;;;5.70;3.17;;;;;;;17.70;86.70;99493.50;4898537;29;20548;-61
2022/08/14 01:17:08;;;;;;;4.55;2.92;;;;;;;17.62;87.28;99493.16;4898517;29;20036;-61
2022/08/14 01:22:18;;;;;;;7.20;3.30;;;;;;;17.34;87.17;99486.13;4897582;29;20236;-61
2022/08/14 01:24:44;;;;;;;5.05;3.15;;;;;;;17.28;86.79;99497.28;4896283;29;20146;-61
2022/08/14 01:27:17;;;;;;;5.07;2.90;;;;;;;17.23;87.39;99502.13;4896597;29;20029;-61
2022/08/14 01:29:44;;;;;;;;;;;;;;;17.20;88.22;99504.16;4898734;29;20111;-61
2022/08/14 01:32:11;;;;;;;5.05;3.20;;;;;;;17.16;88.53;99499.94;4897195;29;19915;-61
2022/08/14 01:34:37;;;;;;;4.75;3.20;;;;;;;17.12;88.61;99493.91;4897243;29;20435;-62
2022/08/14 01:37:03;;;;;;;4.38;2.75;;;;;;;17.12;89.11;99501.97;4896537;29;20028;-61
2022/08/14 01:39:29;;;;;;;6.68;3.25;;;;;;;17.15;89.42;99495.53;4897146;29;20028;-61
2022/08/14 01:41:59;;;;;;;4.93;3.10;;;;;;;17.16;88.75;99492.75;4896989;29;20036;-61
2022/08/14 01:44:28;;;;;;;5.15;2.95;;;;;;;17.17;88.53;99488.22;4897183;29;20488;-61
2022/08/14 01:46:57;;;;;;;5.18;3.97;;;;;;;17.06;88.92;99460.25;4896994;29;20458;-61
2022/08/14 01:49:23;;;;;;;5.47;2.90;;;;;;;17.14;89.49;99475.84;4897273;29;20582;-62
2022/08/14 01:51:55;;;;;;;5.38;3.30;;;;;;;17.09;88.84;99465.44;4897205;29;20052;-62
2022/08/14 01:54:21;;;;;;;5.00;3.33;;;;;;;17.14;88.98;99467.78;4897290;29;20028;-61
2022/08/14 01:56:50;;;;;;;6.05;3.20;;;;;;;17.18;89.22;99466.63;4897082;29;20243;-61
2022/08/14 01:59:16;;;;;;;5.18;3.08;;;;;;;17.18;89.30;99468.44;4897351;29;20025;-62
2022/08/14 02:01:42;;;;;;;5.22;3.28;;;;;;;17.22;88.56;99464.56;4897760;29;20036;-61
2022/08/14 02:04:09;;;;;;;6.18;3.28;;;;;;;17.22;87.78;99452.00;4897829;29;20029;-61
2022/08/14 02:06:36;;;;;;;5.45;3.38;;;;;;;17.19;88.41;99462.97;4897552;29;20060;-62
2022/08/14 02:09:04;;;;;;;5.93;3.53;;;;;;;17.02;88.56;99437.25;4897483;29;20505;-62
2022/08/14 02:11:30;;;;;;;5.00;3.28;;;;;;;17.09;88.73;99459.19;4897473;29;20033;-62
2022/08/14 02:13:58;;;;;;;5.40;3.42;;;;;;;17.13;87.91;99455.34;4897600;29;20504;-62
2022/08/14 02:16:28;;;;;;;5.10;2.78;;;;;;;17.01;88.56;99457.03;4896570;29;20036;-62
2022/08/14 02:18:59;;;;;;;6.93;3.55;;;;;;;17.07;88.26;99453.03;4897087;29;20032;-62
2022/08/14 02:21:26;;;;;;;5.65;2.83;;;;;;;16.95;88.17;99435.09;4898810;29;20048;-62
2022/08/14 02:23:54;;;;;;;5.28;3.30;;;;;;;17.01;87.88;99445.41;4896828;29;20416;-62
2022/08/14 02:26:26;;;;;;;5.35;3.58;;;;;;;16.99;88.66;99433.88;4896497;29;20024;-62
2022/08/14 02:28:58;;;;;;;4.65;3.25;;;;;;;16.97;89.10;99438.50;4896596;29;20541;-61
2022/08/14 02:31:29;;;;;;;7.32;3.88;;;;;;;16.97;88.60;99433.13;4896722;29;20414;-61
2022/08/14 02:33:55;;;;;;;5.15;3.13;;;;;;;16.99;87.95;99431.22;4896956;29;20025;-61
2022/08/14 02:36:21;;;;;;;5.47;3.55;;;;;;;16.99;87.70;99431.22;4897388;29;20028;-61
2022/08/14 02:38:48;;;;;;;6.18;2.80;;;;;;;16.96;87.33;99426.91;4897260;29;20029;-61
2022/08/14 02:41:14;;;;;;;8.25;3.53;;;;;;;16.96;87.40;99434.09;4897009;29;20025;-61
2022/08/14 02:43:40;;;;;;;4.93;3.47;;;;;;;17.00;87.11;99432.94;4896986;29;20035;-61
2022/08/14 02:46:09;;;;;;;4.65;3.00;;;;;;;16.97;87.65;99438.50;4896846;29;20368;-61
2022/08/14 02:48:45;;;;;;;4.00;2.92;;;;;;;16.84;87.48;99421.50;4896886;29;20161;-61
2022/08/14 02:51:12;;;;;;;4.70;3.22;;;;;;;16.87;87.82;99434.72;4897228;29;20541;-61
2022/08/14 02:53:41;;;;;;;4.93;3.38;;;;;;;16.83;87.99;99433.22;4911399;29;20036;-62
2022/08/14 02:56:08;;;;;;;5.70;3.58;;;;;;;16.77;88.42;99430.94;4899016;29;20047;-62
2022/08/14 02:58:37;;;;;;;5.03;3.20;;;;;;;16.78;88.27;99427.28;4896756;29;20032;-62
2022/08/14 03:01:04;;;;;;;4.57;3.20;;;;;;;16.67;88.48;99409.19;4896460;29;20045;-62
2022/08/14 03:03:30;;;;;;;5.78;3.50;;;;;;;16.66;88.24;99414.66;4896471;29;20029;-62
2022/08/14 03:05:56;;;;;;;5.35;3.47;;;;;;;16.63;89.29;99418.44;4896038;29;20033;-62
2022/08/14 03:08:30;;;;;;;7.03;4.20;;;;;;;16.69;88.88;99407.28;4895425;29;20076;-62
2022/08/14 03:10:56;;;;;;;4.88;3.92;;;;;;;16.71;89.06;99413.41;4895610;29;20655;-62
2022/08/14 03:13:21;;;;;;;7.18;3.50;;;;;;;16.70;89.36;99413.50;4895102;29;20040;-62
2022/08/14 03:15:51;;;;;;;6.28;3.35;;;;;;;16.72;89.11;99420.50;4895428;29;20044;-62
2022/08/14 03:18:16;;;;;;;5.40;3.08;;;;;;;16.69;89.20;99414.47;4896546;29;20507;-62
2022/08/14 03:20:42;;;;;;;17.02;4.05;;;;;;;16.69;89.70;99418.00;4896428;29;20037;-62
2022/08/14 03:23:07;;;;;;;5.20;3.47;;;;;;;16.69;89.31;99406.41;4896231;29;20028;-62
2022/08/14 03:25:33;;;;;;;5.45;3.45;;;;;;;16.67;89.98;99413.72;4896391;29;20734;-62
2022/08/14 03:28:02;;;;;;;5.57;3.67;;;;;;;16.66;89.17;99406.63;4895362;29;20488;-62
2022/08/14 03:30:29;;;;;;;6.80;3.47;;;;;;;16.62;90.27;99400.59;4895806;29;20111;-62
2022/08/14 03:32:56;;;;;;;5.10;3.55;;;;;;;16.59;90.72;99399.94;4895405;29;20075;-62
2022/08/14 03:35:22;;;;;;;5.82;3.50;;;;;;;16.53;89.64;99400.34;4895577;29;20052;-62
2022/08/14 03:37:49;;;;;;;5.65;3.47;;;;;;;16.47;90.59;99395.38;4895447;29;20056;-62
2022/08/14 03:40:15;;;;;;;4.80;3.42;;;;;;;16.43;90.68;99388.44;4895841;29;20049;-62
2022/08/14 03:42:41;;;;;;;6.18;3.55;;;;;;;16.40;90.45;99377.94;4895783;29;20035;-62
2022/08/14 03:45:06;;;;;;;11.57;4.93;;;;;;;16.39;90.45;99381.59;4895978;29;20393;-61
2022/08/14 03:47:35;;;;;;;18.00;4.65;;;;;;;16.36;90.50;99381.78;4896383;29;20088;-62
2022/08/14 03:50:01;;;;;;;6.03;4.05;;;;;;;16.36;90.17;99376.44;4895944;29;20084;-62
2022/08/14 03:52:26;;;;;;;5.47;3.80;;;;;;;16.39;89.71;99376.22;4896031;29;20048;-62
2022/08/14 03:54:52;;;;;;;6.18;3.60;;;;;;;16.39;90.50;99378.91;4896095;29;20111;-62
2022/08/14 03:57:17;;;;;;;11.77;4.78;;;;;;;16.39;89.20;99376.22;4895779;29;20111;-62
2022/08/14 03:59:43;;;;;;;5.32;3.80;;;;;;;16.40;89.64;99383.28;4895791;29;20095;-62
2022/08/14 04:02:08;;;;;;;5.47;3.70;;;;;;;16.45;88.47;99391.91;4896030;29;20036;-62
2022/08/14 04:04:33;;;;;;;10.38;3.63;;;;;;;16.50;88.61;99389.81;4895959;29;20084;-62
2022/08/14 04:06:59;;;;;;;5.22;3.53;;;;;;;16.58;87.37;99384.78;4895950;29;20385;-62
2022/08/14 04:09:26;;;;;;;4.80;3.22;;;;;;;16.51;86.96;99386.16;4895783;29;20123;-62
2022/08/14 04:11:51;;;;;;;5.32;3.58;;;;;;;16.50;87.18;99398.72;4895813;29;20037;-62
2022/08/14 04:14:16;;;;;;;7.72;3.50;;;;;;;16.53;86.92;99400.34;4895718;29;20092;-62
2022/08/14 04:16:46;;;;;;;6.63;3.88;;;;;;;16.51;87.54;99400.44;4895812;29;20037;-62
2022/08/14 04:19:11;;;;;;;6.97;3.80;;;;;;;16.47;86.47;99384.66;4895770;29;20029;-62
2022/08/14 04:21:37;;;;;;;6.25;4.03;;;;;;;16.59;85.97;99394.59;4898322;29;20503;-62
2022/08/14 04:24:04;;;;;;;4.80;3.45;;;;;;;16.62;85.42;99407.81;4895710;29;20389;-62
2022/08/14 04:26:30;;;;;;;5.03;3.58;;;;;;;16.64;85.67;99400.47;4895489;29;20048;-62
2022/08/14 04:28:56;;;;;;;5.15;3.45;;;;;;;16.65;84.99;99400.41;4895534;29;20362;-62
2022/08/14 04:31:22;;;;;;;6.68;3.50;;;;;;;16.68;85.02;99393.94;4895859;29;20036;-62
2022/08/14 04:33:51;;;;;;;6.65;3.78;;;;;;;16.74;85.08;99404.28;4895643;29;20032;-62
2022/08/14 04:36:17;;;;;;;5.53;3.72;;;;;;;16.71;84.05;99402.66;4895294;29;20056;-62
2022/08/14 04:44:18;;;;;;;5.95;3.60;;;;;;;16.77;84.01;99404.09;4878113;29;19915;-62
2022/08/14 04:48:11;;;;;;;5.05;3.83;;;;;;;16.74;83.72;99396.22;4898227;29;20104;-62
2022/08/14 04:49:29;;;;;;;6.65;3.50;;;;;;;16.87;84.72;99383.66;4898050;29;20064;-62
2022/08/14 04:51:54;;;;;;;7.32;4.07;;;;;;;16.84;85.46;99383.88;4898792;29;20036;-62
2022/08/14 04:54:20;;;;;;;10.55;4.03;;;;;;;16.97;84.96;99382.06;4899096;29;20088;-65
2022/08/14 04:56:45;;;;;;;6.50;3.60;;;;;;;16.94;84.94;99374.25;4899106;29;20029;-62
2022/08/14 04:59:11;;;;;;;6.40;4.22;;;;;;;17.14;84.40;99373.72;4901021;29;20024;-62
2022/08/14 05:01:42;;;;;;;5.45;3.45;;;;;;;17.16;84.19;99376.31;4896828;29;20037;-62
2022/08/14 05:04:07;;;;;;;17.15;4.32;;;;;;;17.19;83.78;99384.16;4896069;29;20041;-62
2022/08/14 05:06:33;;;;;;;7.95;4.53;;;;;;;17.26;83.87;99378.25;4896471;29;20025;-62
2022/08/14 05:08:58;;;;;;;7.03;3.97;;;;;;;17.31;83.22;99378.81;4896535;29;20020;-62
2022/08/14 05:11:23;;;;;;;5.13;3.75;;;;;;;17.47;82.50;99378.59;4896627;29;20033;-62
2022/08/14 05:13:49;;;;;;;5.57;4.00;;;;;;;17.62;81.77;99383.75;4896463;29;20028;-62
2022/08/14 05:16:14;;;;;;;7.70;4.40;;;;;;;17.77;81.22;99393.44;4897217;29;20029;-62
2022/08/14 05:18:39;;;;;;;7.40;4.32;;;;;;;17.87;80.46;99389.13;4897698;29;20036;-63
2022/08/14 05:21:08;;;;;;;6.57;4.80;;;;;;;17.98;80.21;99383.81;4897529;29;20382;-62
2022/08/14 05:23:36;;;;;;;6.82;5.30;;;;;;;17.98;80.11;99383.81;4897457;29;20092;-62
2022/08/14 05:26:04;;;;;;;11.77;5.88;;;;;;;18.03;80.00;99384.34;4897317;29;20066;-62
2022/08/14 05:28:35;;;;;;;7.40;6.60;;;;;;;18.27;78.49;99376.28;4897250;29;20044;-62
2022/08/14 05:31:05;;;;;;;10.07;7.40;;;;;;;18.34;78.51;99346.09;4896922;29;20500;-62
2022/08/14 05:33:33;;;;;;;8.20;7.40;;;;;;;18.45;78.86;99333.69;4897477;29;20503;-62
2022/08/14 05:36:00;;;;;;;8.60;4.70;;;;;;;18.73;78.30;99352.19;4897293;29;20477;-62
2022/08/14 05:38:32;;;;;;;6.80;4.05;;;;;;;18.89;77.36;99363.50;4897232;29;20392;-62
2022/08/14 05:40:58;;;;;;;7.85;4.15;;;;;;;19.08;77.41;99361.09;4897203;29;20032;-62
2022/08/14 05:43:23;;;;;;;6.32;4.40;;;;;;;19.26;76.25;99362.34;4896598;29;20047;-62
2022/08/14 05:45:49;;;;;;;5.47;3.55;;;;;;;19.56;74.50;99366.25;4896884;29;20469;-62
2022/08/14 05:48:17;;;;;;;8.07;3.83;;;;;;;19.78;74.58;99368.09;4897171;29;20024;-62
2022/08/14 05:50:43;;;;;;;10.70;4.18;;;;;;;19.96;74.31;99365.72;4897157;29;20028;-62
2022/08/14 05:53:10;;;;;;;10.20;4.47;;;;;;;20.10;73.74;99352.81;4897323;29;20532;-62
2022/08/14 05:55:36;;;;;;;11.30;4.13;;;;;;;20.35;72.48;99360.66;4896905;29;20029;-62
2022/08/14 05:58:04;;;;;;;5.50;3.67;;;;;;;20.57;72.82;99355.19;4896839;29;20024;-63
2022/08/14 06:00:34;;;;;;;7.17;4.10;;;;;;;20.73;71.23;99350.22;4858504;29;1145991;-62
2022/08/14 06:03:02;;;;;;;5.38;3.45;;;;;;;20.93;71.63;99346.69;4897997;29;20621;-62
2022/08/14 06:05:28;;;;;;;7.65;3.47;;;;;;;21.10;69.36;99339.00;4897124;29;20035;-62
2022/08/14 06:07:53;;;;;;;8.02;3.95;;;;;;;21.18;69.07;99336.47;4896822;29;20437;-62
2022/08/14 06:10:19;;;;;;;4.88;2.97;;;;;;;21.43;68.49;99333.34;4896889;29;20048;-62
2022/08/14 06:12:44;;;;;;;26.58;4.97;;;;;;;21.57;66.97;99327.56;4896871;29;20096;-62
2022/08/14 06:15:10;;;;;;;8.93;3.55;;;;;;;21.53;66.93;99318.84;4897068;29;20028;-62
2022/08/14 06:17:47;;;;;;;5.78;3.70;;;;;;;21.52;66.39;99317.16;4897116;29;20028;-62
2022/08/14 06:20:14;;;;;;;4.90;3.25;;;;;;;21.29;65.73;99283.16;4899404;29;20513;-62
2022/08/14 06:22:40;;;;;;;9.13;3.15;;;;;;;21.50;67.12;99307.47;4897437;29;20024;-62
2022/08/14 06:25:08;;;;;;;4.80;3.25;;;;;;;21.44;66.57;99297.16;4897211;29;20485;-62
2022/08/14 06:27:45;;;;;;;4.40;3.30;;;;;;;21.46;66.64;99306.88;4897563;29;20059;-62
2022/08/14 06:30:15;;;;;;;6.88;3.20;;;;;;;21.47;66.82;99302.31;4897330;29;20037;-62
2022/08/14 06:32:40;;;;;;;5.28;3.10;;;;;;;21.67;67.33;99293.28;4897209;29;20033;-62
2022/08/14 06:35:07;;;;;;;7.47;3.28;;;;;;;21.83;64.97;99294.50;4897191;29;20107;-62
2022/08/14 06:37:59;;;;;;;5.05;3.13;;;;;;;22.07;64.69;99286.03;4897204;29;20079;-62
2022/08/14 06:40:30;;;;;;;5.97;3.42;;;;;;;22.31;64.69;99275.63;4893796;29;20048;-62
2022/08/14 06:43:21;;;;;;;5.05;3.10;;;;;;;22.48;63.34;99279.50;4898992;29;20052;-62
2022/08/14 06:45:48;;;;;;;5.25;3.58;;;;;;;22.59;63.13;99285.66;4883967;29;20043;-62
2022/08/14 06:48:24;;;;;;;7.18;3.05;;;;;;;22.69;63.28;99272.97;4897041;29;20412;-62
2022/08/14 06:50:51;;;;;;;5.72;3.35;;;;;;;22.86;62.95;99277.66;4897000;29;20032;-62
2022/08/14 06:53:18;;;;;;;5.78;3.05;;;;;;;23.05;62.31;99293.03;4896884;29;20024;-62
2022/08/14 06:55:45;;;;;;;5.72;3.83;;;;;;;23.25;61.37;99292.00;4896532;29;20020;-62
2022/08/14 06:58:16;;;;;;;5.93;3.30;;;;;;;23.42;60.55;99289.41;4896822;29;20036;-62
2022/08/14 07:05:45;;;;;;;8.90;3.80;;;;;;;23.51;60.58;99292.25;4896501;29;20119;-62
2022/08/14 07:06:14;;;;;;;5.18;3.17;;;;;;;23.85;61.27;99285.22;4896652;29;20036;-62
2022/08/14 07:08:42;;;;;;;5.15;3.60;;;;;;;23.92;59.59;99289.88;4898767;29;20097;-62
2022/08/14 07:11:08;;;;;;;10.65;3.35;;;;;;;24.06;59.03;99294.00;4896367;29;20040;-62
2022/08/14 07:13:33;;;;;;;5.07;2.90;;;;;;;24.18;60.18;99301.78;4896683;29;20037;-62
2022/08/14 07:15:59;;;;;;;5.85;3.72;;;;;;;24.30;58.33;99295.13;4896454;29;20035;-62
2022/08/14 07:18:26;;;;;;;5.15;2.90;;;;;;;24.48;58.93;99293.25;4896551;29;20489;-62
2022/08/14 07:20:53;;;;;;;4.75;3.17;;;;;;;24.71;58.67;99296.41;4896430;29;20104;-62
2022/08/14 07:23:20;;;;;;;6.10;3.30;;;;;;;25.24;56.91;99297.16;4896427;29;20107;-62
2022/08/14 07:25:46;;;;;;;6.05;3.03;;;;;;;25.71;54.47;99303.97;4895882;29;20032;-61
2022/08/14 07:28:14;;;;;;;4.75;3.00;;;;;;;25.98;52.25;99293.88;4896232;29;20080;-61
2022/08/14 07:30:39;;;;;;;4.85;2.92;;;;;;;26.11;51.63;99305.19;4895865;29;20115;-61
2022/08/14 07:33:05;;;;;;;4.47;2.95;;;;;;;26.19;52.13;99307.94;4895382;29;20153;-61
2022/08/14 07:35:32;;;;;;;5.22;2.92;;;;;;;26.31;50.45;99303.91;4895504;29;20440;-61
2022/08/14 07:37:57;;;;;;;4.38;2.75;;;;;;;26.57;48.83;99301.91;4895637;29;20024;-61
2022/08/14 07:40:23;;;;;;;5.20;3.10;;;;;;;26.85;48.42;99317.81;4895640;29;20499;-61
2022/08/14 07:42:49;;;;;;;4.38;2.78;;;;;;;27.57;46.86;99319.69;4896140;29;20033;-61
2022/08/14 07:45:14;;;;;;;5.60;2.47;;;;;;;27.76;45.92;99322.00;4895984;29;20028;-61
2022/08/14 07:47:41;;;;;;;7.65;2.78;;;;;;;28.21;45.14;99316.75;4895542;29;20033;-61
2022/08/14 07:50:13;;;;;;;5.25;2.65;;;;;;;28.83;42.68;99320.31;4895432;29;20028;-61
2022/08/14 07:52:39;;;;;;;3.83;2.60;;;;;;;29.15;41.08;99319.22;4895416;29;20032;-61
2022/08/14 07:55:05;;;;;;;4.38;2.65;;;;;;;29.56;41.62;99312.31;4895258;29;20200;-61
2022/08/14 07:57:31;;;;;;;4.60;2.40;;;;;;;30.03;41.13;99310.13;4895291;29;20080;-61
2022/08/14 07:59:57;;;;;;;6.15;2.60;;;;;;;30.63;39.73;99312.56;4895022;29;20363;-61
2022/08/14 08:02:26;;;;;;;4.57;2.40;;;;;;;30.62;39.07;99316.38;4894991;29;20035;-61
2022/08/14 08:04:55;;;;;;;4.68;2.45;;;;;;;30.78;38.81;99306.00;4895132;29;20052;-61
2022/08/14 08:07:23;;;;;;;4.80;2.50;;;;;;;30.84;39.36;99305.22;4895051;29;20040;-61
2022/08/14 08:09:54;;;;;;;4.38;2.78;;;;;;;31.16;39.16;99298.34;4895177;29;20048;-61
2022/08/14 08:12:20;;;;;;;4.50;2.75;;;;;;;31.40;38.72;99286.94;4895094;29;20037;-61
2022/08/14 08:14:49;;;;;;;4.18;2.30;;;;;;;31.83;38.56;99291.25;4896010;29;20033;-61
2022/08/14 08:17:16;;;;;;;3.63;2.53;;;;;;;31.93;37.67;99279.91;4901701;29;20503;-61
2022/08/14 08:19:42;;;;;;;6.05;2.50;;;;;;;31.49;38.44;99294.00;4898846;29;20048;-61
2022/08/14 08:22:07;;;;;;;6.10;2.63;;;;;;;31.66;38.51;99300.03;4898728;29;20029;-61
2022/08/14 08:24:34;;;;;;;6.13;2.50;;;;;;;31.76;37.96;99300.53;4898879;29;20028;-61
2022/08/14 08:27:01;;;;;;;4.65;2.67;;;;;;;32.08;38.12;99297.13;4899059;29;20037;-62
2022/08/14 08:29:26;;;;;;;3.80;2.50;;;;;;;32.32;36.72;99290.25;4899043;29;20035;-61
2022/08/14 08:31:52;;;;;;;4.82;2.40;;;;;;;32.69;36.76;99278.75;4899073;29;20032;-62
2022/08/14 08:34:18;;;;;;;3.83;2.53;;;;;;;33.10;36.11;99290.50;4899138;29;20032;-61
2022/08/14 08:36:44;;;;;;;4.50;2.30;;;;;;;33.11;36.50;99286.69;4898406;29;20035;-61
2022/08/14 08:39:10;;;;;;;5.80;2.20;;;;;;;33.43;35.70;99302.41;4898611;29;20029;-61
2022/08/14 08:41:46;;;;;;;4.07;2.50;;;;;;;33.78;34.79;99297.47;4900827;29;20024;-62
2022/08/14 08:44:13;;;;;;;3.58;2.30;;;;;;;33.99;34.34;99308.28;4898550;29;20080;-62
2022/08/14 08:46:39;;;;;;;3.55;2.40;;;;;;;34.14;33.90;99301.44;4895763;29;20063;-62
2022/08/14 08:49:05;;;;;;;4.15;2.42;;;;;;;34.32;33.67;99303.50;4880015;29;20060;-62
2022/08/14 08:51:34;;;;;;;5.22;2.22;;;;;;;34.34;32.54;99312.41;4880413;29;20187;-62
2022/08/14 08:54:07;;;;;;;5.07;2.15;;;;;;;34.48;32.96;99322.41;4880585;29;20044;-62
2022/08/14 08:56:33;;;;;;;3.78;2.25;;;;;;;34.85;33.43;99310.50;4879997;29;20097;-62
2022/08/14 08:58:59;;;;;;;3.33;2.30;;;;;;;34.97;33.65;99302.38;4880442;29;20033;-62
2022/08/14 09:01:29;;;;;;;5.03;2.10;;;;;;;35.21;33.82;99293.22;4881886;29;20061;-62
2022/08/14 09:04:05;;;;;;;3.67;2.38;;;;;;;35.50;32.79;99279.59;4898398;29;20032;-62
2022/08/14 09:06:43;;;;;;;4.32;2.65;;;;;;;35.86;32.20;99270.56;4881659;29;20032;-62
2022/08/14 09:09:26;;;;;;;3.28;2.20;;;;;;;35.83;32.19;99259.06;4898755;29;20029;-62
2022/08/14 09:11:53;;;;;;;;;;;;;;;35.98;31.45;99248.47;4898993;29;20483;-62
2022/08/14 09:14:20;;;;;;;4.90;2.33;;;;;;;36.37;31.89;99250.78;4898543;29;19915;-62
2022/08/14 09:16:45;;;;;;;5.40;2.08;;;;;;;36.40;30.78;99255.84;4898787;29;20181;-62
2022/08/14 09:19:11;;;;;;;3.47;1.90;;;;;;;36.51;31.57;99257.84;4901313;29;20545;-63
2022/08/14 09:21:38;;;;;;;4.80;2.20;;;;;;;36.43;30.50;99259.00;4898462;29;20477;-63
2022/08/14 09:24:06;;;;;;;2.35;1.63;;;;;;;36.39;29.71;99249.47;4898224;29;20074;-62
2022/08/14 09:26:32;;;;;;;3.42;1.80;;;;;;;36.24;30.21;99251.78;4897133;29;20024;-62
2022/08/14 09:28:58;;;;;;;3.15;1.85;;;;;;;36.12;28.81;99237.00;4896990;29;20643;-62
2022/08/14 09:31:25;;;;;;;3.75;1.77;;;;;;;36.09;29.91;99237.47;4896515;29;20027;-62
2022/08/14 09:34:09;;;;;;;3.25;1.90;;;;;;;36.50;30.07;99233.97;4878057;29;20119;-63
2022/08/14 09:37:09;;;;;;;3.22;2.03;;;;;;;36.50;28.96;99233.97;4877899;29;20485;-62
2022/08/14 09:39:53;;;;;;;5.05;2.10;;;;;;;36.75;30.00;99235.53;4878754;29;20120;-62
2022/08/14 09:42:38;;;;;;;3.72;2.05;;;;;;;36.87;29.05;99230.03;4874745;29;20036;-62
2022/08/14 09:45:19;;;;;;;3.08;1.70;;;;;;;36.87;28.60;99241.13;4880480;29;20036;-63
2022/08/14 09:47:47;;;;;;;3.22;1.55;;;;;;;37.20;28.33;99233.09;4897263;29;20108;-62
2022/08/14 09:50:21;;;;;;;2.30;1.50;;;;;;;37.19;25.59;99223.09;4897408;29;20028;-62
2022/08/14 09:52:55;;;;;;;3.80;1.80;;;;;;;37.34;27.00;99217.94;4878327;29;20043;-62
2022/08/14 09:55:22;;;;;;;4.47;1.90;;;;;;;37.14;27.54;99200.75;4878552;29;20098;-62
2022/08/14 09:57:49;;;;;;;9.95;2.72;;;;;;;37.49;28.10;99204.44;4878901;29;20124;-62
2022/08/14 10:00:18;;;;;;;6.97;1.63;;;;;;;37.68;27.55;99194.03;4879240;29;20049;-62
2022/08/14 10:03:01;;;;;;;1.80;1.40;;;;;;;38.13;27.01;99193.09;4890889;29;20036;-62
2022/08/14 10:05:35;;;;;;;2.63;1.50;;;;;;;38.60;26.44;99181.84;4897212;29;20040;-62
2022/08/14 10:08:03;;;;;;;4.10;1.95;;;;;;;38.57;25.78;99176.75;4897169;29;20039;-62
2022/08/14 10:10:28;;;;;;;5.10;1.48;;;;;;;38.25;25.77;99158.88;4896858;29;20131;-62
2022/08/14 10:12:54;;;;;;;2.80;1.60;;;;;;;38.08;27.12;99167.13;4896227;29;20470;-62
2022/08/14 10:15:23;;;;;;;3.28;1.80;;;;;;;38.01;26.39;99160.88;4881254;29;20020;-62
2022/08/14 10:18:01;;;;;;;2.58;1.45;;;;;;;38.12;26.44;99158.06;4877157;29;20086;-61
2022/08/14 10:20:43;;;;;;;3.20;1.58;;;;;;;38.46;24.89;99163.72;4897553;29;20421;-62
2022/08/14 10:23:17;;;;;;;3.83;1.40;;;;;;;38.76;24.33;99155.97;4894199;29;20067;-62
2022/08/14 10:25:49;;;;;;;2.80;1.20;;;;;;;38.79;24.27;99161.03;4881575;29;20454;-62
2022/08/14 10:28:16;;;;;;;3.90;1.60;;;;;;;38.74;24.40;99155.38;4877108;29;20124;-61
2022/08/14 10:30:46;;;;;;;2.63;1.30;;;;;;;38.76;24.54;99155.97;4878152;29;20033;-62
2022/08/14 10:33:26;;;;;;;1.90;1.48;;;;;;;38.70;24.83;99143.09;4893842;29;20024;-62
2022/08/14 10:35:52;;;;;;;2.22;1.40;;;;;;;38.61;25.22;99152.94;4879865;29;20029;-62
2022/08/14 10:38:32;;;;;;;2.78;1.38;;;;;;;38.88;24.64;99151.19;4877000;29;20033;-62
2022/08/14 10:41:14;;;;;;;2.75;1.40;;;;;;;39.09;25.47;99153.25;4878122;29;20036;-61
2022/08/14 10:43:44;;;;;;;2.63;1.30;;;;;;;38.93;22.10;99148.50;4878535;29;20033;-61
2022/08/14 10:46:15;;;;;;;1.70;1.10;;;;;;;38.94;23.77;99155.72;4882733;29;20040;-61
2022/08/14 10:48:41;;;;;;;1.52;1.13;;;;;;;38.71;22.82;99145.63;4878349;29;20025;-61
2022/08/14 10:51:08;;;;;;;3.65;1.30;;;;;;;38.97;23.92;99156.06;4888315;29;20063;-61
2022/08/14 10:53:36;;;;;;;1.58;1.25;;;;;;;39.05;23.75;99152.91;4888589;29;20052;-61
2022/08/14 10:56:07;;;;;;;1.92;1.10;;;;;;;39.11;23.13;99156.63;4895941;29;20048;-61
2022/08/14 10:58:33;;;;;;;1.85;1.20;;;;;;;39.39;24.50;99153.72;4896270;29;20055;-61
2022/08/14 11:01:00;;;;;;;2.83;1.40;;;;;;;39.49;24.27;99153.03;4895178;29;20052;-61
2022/08/14 11:03:37;;;;;;;3.97;1.50;;;;;;;39.63;24.05;99155.19;4887996;29;20028;-61
2022/08/14 11:06:21;;;;;;;4.75;1.40;;;;;;;40.12;23.36;99156.97;4877681;29;20037;-62
2022/08/14 11:08:47;;;;;;;2.55;1.40;;;;;;;40.26;23.36;99144.31;4877499;29;20025;-62
2022/08/14 11:11:14;;;;;;;1.95;1.30;;;;;;;39.60;24.41;99147.34;4896939;29;20480;-61
2022/08/14 11:13:45;;;;;;;2.70;1.50;;;;;;;39.42;23.61;99142.88;4877412;29;20385;-61
2022/08/14 11:16:14;;;;;;;3.13;1.23;;;;;;;39.66;22.53;99143.53;4877121;29;20051;-62
2022/08/14 11:18:45;;;;;;;2.95;1.45;;;;;;;39.99;22.36;99148.16;4877418;29;20489;-62
2022/08/14 11:21:17;;;;;;;3.78;1.30;;;;;;;39.56;21.74;99137.81;4893436;29;20028;-62
2022/08/14 11:23:44;;;;;;;2.95;1.50;;;;;;;39.26;22.40;99142.94;4896145;29;20028;-61
2022/08/14 11:26:12;;;;;;;5.00;1.98;;;;;;;39.31;22.79;99141.06;4878742;29;20065;-61
2022/08/14 11:28:40;;;;;;;2.35;1.40;;;;;;;39.18;23.26;99135.00;4877830;29;20041;-61
2022/08/14 11:31:10;;;;;;;1.98;1.17;;;;;;;39.05;23.23;99140.91;4877773;29;20029;-61
2022/08/14 11:33:37;;;;;;;2.63;1.30;;;;;;;39.15;22.47;99149.41;4877626;29;20078;-61
2022/08/14 11:36:05;;;;;;;4.20;1.58;;;;;;;39.07;23.50;99142.38;4878084;29;20024;-61
2022/08/14 11:38:39;;;;;;;1.70;1.10;;;;;;;39.31;22.79;99141.06;4877528;29;20029;-61
2022/08/14 11:41:06;;;;;;;2.00;1.30;;;;;;;39.58;21.18;99132.84;4877377;29;20025;-61
2022/08/14 11:43:36;;;;;;;1.98;1.30;;;;;;;39.73;21.00;99133.03;4891424;29;20032;-61
2022/08/14 11:46:02;;;;;;;2.25;1.20;;;;;;;40.32;23.21;99120.13;4896204;29;20052;-61
2022/08/14 11:48:28;;;;;;;3.13;1.27;;;;;;;40.55;21.44;99120.66;4888840;29;20060;-61
2022/08/14 11:50:53;;;;;;;1.40;1.10;;;;;;;40.11;22.71;99110.69;4877876;29;20137;-61